sensor_id;sensor_type;location;lat;lon;timestamp;pressure;altitude;pressure_sealevel;temperature
68342;BMP280;55668;52.310;21.066;2022-10-04T00:08:59;100450.0;;;10.8
68342;BMP280;55668;52.310;21.066;2022-10-04T00:23:42;100440.0;;;10.7
68342;BMP280;55668;52.310;21.066;2022-10-04T00:38:45;100420.0;;;10.6
68342;BMP280;55668;52.310;21.066;2022-10-04T00:54:03;100430.0;;;10.4
68342;BMP280;55668;52.310;21.066;2022-10-04T01:24:48;100420.0;;;10.3
68342;BMP280;55668;52.310;21.066;2022-10-04T01:56:14;100430.0;;;10.2
68342;BMP280;55668;52.310;21.066;2022-10-04T02:15:20;100440.0;;;10.1
68342;BMP280;55668;52.310;21.066;2022-10-04T02:56:55;100440.0;;;10.0
68342;BMP280;55668;52.310;21.066;2022-10-04T03:44:30;100460.0;;;10.2
68342;BMP280;55668;52.310;21.066;2022-10-04T03:59:35;100460.0;;;10.3
68342;BMP280;55668;52.310;21.066;2022-10-04T04:13:46;100480.0;;;10.4
68342;BMP280;55668;52.310;21.066;2022-10-04T05:01:41;100510.0;;;10.5
68342;BMP280;55668;52.310;21.066;2022-10-04T05:16:38;100530.0;;;10.6
68342;BMP280;55668;52.310;21.066;2022-10-04T05:36:29;100550.0;;;10.7
68342;BMP280;55668;52.310;21.066;2022-10-04T06:02:01;100590.0;;;11.0
68342;BMP280;55668;52.310;21.066;2022-10-04T06:19:16;100600.0;;;11.4
68342;BMP280;55668;52.310;21.066;2022-10-04T06:32:05;100610.0;;;11.8
68342;BMP280;55668;52.310;21.066;2022-10-04T07:03:44;100650.0;;;11.7
68342;BMP280;55668;52.310;21.066;2022-10-04T07:19:32;100670.0;;;11.8
68342;BMP280;55668;52.310;21.066;2022-10-04T07:33:33;100680.0;;;12.4
68342;BMP280;55668;52.310;21.066;2022-10-04T07:49:38;100690.0;;;13.3
68342;BMP280;55668;52.310;21.066;2022-10-04T07:56:37;100710.0;;;14.3
68342;BMP280;55668;52.310;21.066;2022-10-04T08:12:06;100710.0;;;13.8
68342;BMP280;55668;52.310;21.066;2022-10-04T08:43:36;100730.0;;;13.9
68342;BMP280;55668;52.310;21.066;2022-10-04T09:00:18;100750.0;;;13.8
68342;BMP280;55668;52.310;21.066;2022-10-04T09:13:46;100770.0;;;13.6
68342;BMP280;55668;52.310;21.066;2022-10-04T09:45:35;100800.0;;;13.7
68342;BMP280;55668;52.310;21.066;2022-10-04T09:59:30;100800.0;;;13.5
68342;BMP280;55668;52.310;21.066;2022-10-04T10:15:54;100810.0;;;13.8
68342;BMP280;55668;52.310;21.066;2022-10-04T10:30:23;100820.0;;;14.2
68342;BMP280;55668;52.310;21.066;2022-10-04T10:47:00;100830.0;;;14.4
68342;BMP280;55668;52.310;21.066;2022-10-04T11:01:48;100840.0;;;15.3
68342;BMP280;55668;52.310;21.066;2022-10-04T11:17:26;100860.0;;;15.4
68342;BMP280;55668;52.310;21.066;2022-10-04T11:47:40;100910.0;;;14.9
68342;BMP280;55668;52.310;21.066;2022-10-04T12:02:38;100900.0;;;15.2
68342;BMP280;55668;52.310;21.066;2022-10-04T12:35:42;100930.0;;;14.8
68342;BMP280;55668;52.310;21.066;2022-10-04T12:49:23;100940.0;;;15.2
68342;BMP280;55668;52.310;21.066;2022-10-04T13:04:31;100950.0;;;15.0
68342;BMP280;55668;52.310;21.066;2022-10-04T13:35:26;100970.0;;;15.1
68342;BMP280;55668;52.310;21.066;2022-10-04T14:05:48;100990.0;;;14.9
68342;BMP280;55668;52.310;21.066;2022-10-04T14:21:33;101000.0;;;15.1
68342;BMP280;55668;52.310;21.066;2022-10-04T14:36:30;101020.0;;;14.9
68342;BMP280;55668;52.310;21.066;2022-10-04T14:53:30;101030.0;;;14.8
68342;BMP280;55668;52.310;21.066;2022-10-04T15:10:54;101050.0;;;14.5
68342;BMP280;55668;52.310;21.066;2022-10-04T15:22:19;101050.0;;;14.3
68342;BMP280;55668;52.310;21.066;2022-10-04T15:38:17;101070.0;;;13.9
68342;BMP280;55668;52.310;21.066;2022-10-04T15:53:24;101090.0;;;13.8
68342;BMP280;55668;52.310;21.066;2022-10-04T16:09:46;101120.0;;;13.3
68342;BMP280;55668;52.310;21.066;2022-10-04T16:24:25;101140.0;;;13.1
68342;BMP280;55668;52.310;21.066;2022-10-04T16:38:47;101140.0;;;13.0
68342;BMP280;55668;52.310;21.066;2022-10-04T16:54:13;101160.0;;;12.8
68342;BMP280;55668;52.310;21.066;2022-10-04T17:11:06;101170.0;;;12.7
68342;BMP280;55668;52.310;21.066;2022-10-04T17:27:17;101180.0;;;12.3
68342;BMP280;55668;52.310;21.066;2022-10-04T17:41:41;101180.0;;;12.0
68342;BMP280;55668;52.310;21.066;2022-10-04T17:55:42;101190.0;;;11.7
68342;BMP280;55668;52.310;21.066;2022-10-04T18:10:55;101210.0;;;11.4
68342;BMP280;55668;52.310;21.066;2022-10-04T18:26:57;101220.0;;;11.3
68342;BMP280;55668;52.310;21.066;2022-10-04T18:44:03;101240.0;;;11.1
68342;BMP280;55668;52.310;21.066;2022-10-04T18:58:16;101250.0;;;11.0
68342;BMP280;55668;52.310;21.066;2022-10-04T19:13:15;101270.0;;;10.8
68342;BMP280;55668;52.310;21.066;2022-10-04T19:50:13;101300.0;;;10.6
68342;BMP280;55668;52.310;21.066;2022-10-04T19:58:54;101310.0;;;10.4
68342;BMP280;55668;52.310;21.066;2022-10-04T20:30:49;101340.0;;;10.1
68342;BMP280;55668;52.310;21.066;2022-10-04T21:00:49;101350.0;;;10.0
68342;BMP280;55668;52.310;21.066;2022-10-04T21:15:20;101360.0;;;9.9
68342;BMP280;55668;52.310;21.066;2022-10-04T21:31:58;101360.0;;;9.8
68342;BMP280;55668;52.310;21.066;2022-10-04T21:46:27;101350.0;;;9.6
68342;BMP280;55668;52.310;21.066;2022-10-04T22:17:23;101360.0;;;9.5
68342;BMP280;55668;52.310;21.066;2022-10-04T22:32:54;101380.0;;;9.4
68342;BMP280;55668;52.310;21.066;2022-10-04T23:34:56;101420.0;;;9.5
68342;BMP280;55668;52.310;21.066;2022-10-04T23:49:27;101410.0;;;9.6
